createdAt,value
2022-11-29T00:00:28.450Z,65.22
2022-11-29T00:03:31.300Z,69.32
2022-11-29T00:06:34.432Z,62.33
2022-11-29T00:09:36.469Z,60.42
2022-11-29T00:12:38.535Z,65.30
2022-11-29T00:15:40.953Z,61.03
2022-11-29T00:18:42.938Z,65.20
2022-11-29T00:21:45.079Z,56.10
2022-11-29T00:24:47.121Z,61.28
2022-11-29T00:27:49.180Z,54.33
2022-11-29T00:30:51.239Z,55.83
2022-11-29T00:33:53.640Z,57.10
2022-11-29T00:36:55.803Z,59.50
2022-11-29T00:39:58.033Z,56.40
2022-11-29T00:43:00.054Z,52.25
2022-11-29T00:46:03.087Z,56.55
2022-11-29T00:49:05.562Z,53.75
2022-11-29T00:52:07.687Z,58.10
2022-11-29T00:55:09.920Z,61.53
2022-11-29T00:58:11.974Z,56.90
2022-11-29T01:01:14.053Z,49.78
2022-11-29T01:04:16.258Z,54.58
2022-11-29T01:07:18.385Z,54.75
2022-11-29T01:10:20.498Z,51.88
2022-11-29T01:13:22.465Z,61.92
2022-11-29T01:16:25.512Z,60.63
2022-11-29T01:19:28.426Z,60.53
2022-11-29T01:22:30.465Z,59.47
2022-11-29T01:25:32.629Z,57.10
2022-11-29T01:28:36.787Z,62.85
2022-11-29T01:31:39.153Z,60.88
2022-11-29T01:34:41.397Z,61.35
2022-11-29T01:37:43.513Z,64.40
2022-11-29T01:40:55.911Z,68.38
2022-11-29T01:44:01.528Z,64.57
2022-11-29T01:47:03.900Z,62.53
2022-11-29T01:50:08.290Z,61.95
2022-11-29T01:53:12.022Z,61.53
2022-11-29T01:56:15.717Z,67.97
2022-11-29T01:59:22.052Z,61.63
2022-11-29T02:02:38.517Z,65.13
2022-11-29T02:05:44.392Z,65.85
2022-11-29T02:08:46.349Z,62.40
2022-11-29T02:12:35.498Z,71.45
2022-11-29T02:15:48.571Z,60.80
2022-11-29T02:18:54.803Z,56.67
2022-11-29T02:22:14.076Z,64.78
2022-11-29T02:25:53.473Z,62.53
2022-11-29T02:29:13.361Z,64.82
2022-11-29T02:32:50.498Z,68.70
2022-11-29T02:36:11.118Z,64.72
2022-11-29T02:39:37.739Z,59.97
2022-11-29T02:43:36.787Z,66.75
2022-11-29T02:47:03.271Z,64.15
2022-11-29T02:50:19.935Z,68.57
2022-11-29T02:53:56.023Z,63.25
2022-11-29T02:57:14.553Z,57.20
2022-11-29T03:00:20.248Z,60.95
2022-11-29T03:03:33.050Z,63.40
2022-11-29T03:06:47.199Z,59.40
2022-11-29T03:10:17.905Z,62.03
2022-11-29T03:13:34.521Z,65.30
2022-11-29T03:16:43.460Z,63.83
2022-11-29T03:20:04.733Z,63.60
2022-11-29T03:23:23.273Z,70.15
2022-11-29T03:26:35.466Z,63.60
2022-11-29T03:29:40.914Z,58.63
2022-11-29T03:33:00.759Z,66.43
2022-11-29T03:36:10.296Z,56.45
2022-11-29T03:39:21.039Z,60.78
2022-11-29T03:42:30.993Z,68.05
2022-11-29T03:45:35.800Z,67.63
2022-11-29T03:48:49.866Z,65.75
2022-11-29T03:52:04.274Z,68.00
2022-11-29T03:55:09.130Z,66.03
2022-11-29T03:58:23.094Z,72.90
2022-11-29T04:02:04.003Z,73.93
2022-11-29T04:05:34.209Z,68.60
2022-11-29T04:09:00.038Z,69.65
2022-11-29T04:12:26.179Z,72.60
2022-11-29T04:16:03.148Z,67.80
2022-11-29T04:19:17.300Z,65.95
2022-11-29T04:22:41.624Z,72.55
2022-11-29T04:26:01.994Z,69.32
2022-11-29T04:29:33.675Z,71.47
2022-11-29T04:33:14.082Z,75.97
2022-11-29T04:36:53.866Z,75.70
2022-11-29T04:40:18.219Z,77.38
2022-11-29T04:43:25.593Z,81.60
2022-11-29T04:46:54.576Z,84.82
2022-11-29T04:50:30.237Z,80.68
2022-11-29T04:53:57.219Z,80.95
2022-11-29T04:57:12.708Z,84.22
2022-11-29T05:00:21.057Z,80.60
2022-11-29T05:03:38.718Z,80.72
2022-11-29T05:06:52.606Z,76.72
2022-11-29T05:10:35.232Z,75.63
2022-11-29T05:13:40.231Z,74.40
2022-11-29T05:16:53.564Z,81.40
2022-11-29T05:20:04.881Z,75.95
2022-11-29T05:23:41.741Z,75.57
2022-11-29T05:26:59.788Z,73.15
2022-11-29T05:30:12.487Z,68.57
2022-11-29T05:33:42.041Z,69.13
2022-11-29T05:37:11.295Z,68.22
2022-11-29T05:40:25.420Z,68.25
2022-11-29T05:43:48.998Z,70.40
2022-11-29T05:47:06.230Z,68.00
2022-11-29T05:50:18.461Z,70.60
2022-11-29T05:53:44.604Z,72.05
2022-11-29T05:56:46.594Z,71.45
2022-11-29T05:59:51.246Z,73.93
2022-11-29T06:03:39.471Z,62.22
2022-11-29T06:07:19.170Z,83.22
2022-11-29T06:10:29.560Z,69.38
2022-11-29T06:13:51.090Z,66.18
2022-11-29T06:17:14.659Z,65.30
2022-11-29T06:20:53.585Z,81.50
2022-11-29T06:24:20.544Z,69.82
2022-11-29T06:28:07.882Z,78.07
2022-11-29T06:31:27.676Z,65.00
2022-11-29T06:34:56.022Z,65.18
2022-11-29T06:38:00.987Z,57.97
2022-11-29T06:41:03.277Z,67.22
2022-11-29T06:44:06.319Z,66.78
2022-11-29T06:47:16.587Z,66.22
2022-11-29T06:50:25.187Z,63.85
2022-11-29T06:53:55.498Z,66.85
2022-11-29T06:57:26.375Z,65.60
2022-11-29T07:00:47.113Z,73.80
2022-11-29T07:04:15.003Z,69.32
2022-11-29T07:07:22.595Z,62.90
2022-11-29T07:10:25.456Z,60.25
2022-11-29T07:13:27.648Z,63.17
2022-11-29T07:17:02.388Z,71.45
2022-11-29T07:20:28.474Z,67.80
2022-11-29T07:23:45.938Z,64.82
2022-11-29T07:26:59.940Z,66.38
2022-11-29T07:30:19.745Z,64.93
2022-11-29T07:33:40.312Z,61.33
2022-11-29T07:36:57.330Z,67.80
2022-11-29T07:40:17.218Z,69.57
2022-11-29T07:43:25.406Z,68.63
2022-11-29T07:46:29.163Z,63.88
2022-11-29T07:49:31.659Z,60.40
2022-11-29T07:52:33.884Z,60.78
2022-11-29T07:55:37.071Z,57.97
2022-11-29T07:58:39.787Z,57.78
2022-11-29T08:01:42.082Z,57.85
2022-11-29T08:04:44.660Z,59.00
2022-11-29T08:07:47.785Z,57.92
2022-11-29T08:10:49.757Z,60.20
2022-11-29T08:13:59.528Z,56.47
2022-11-29T08:17:01.502Z,52.85
2022-11-29T08:20:04.603Z,56.90
2022-11-29T08:23:06.669Z,53.55
2022-11-29T08:26:08.650Z,52.85
2022-11-29T08:29:10.901Z,49.35
2022-11-29T08:32:12.950Z,49.75
2022-11-29T08:35:15.320Z,46.78
2022-11-29T08:38:17.325Z,49.85
2022-11-29T08:41:19.317Z,51.63
2022-11-29T08:44:21.279Z,49.05
2022-11-29T08:47:38.333Z,52.10
2022-11-29T08:50:40.316Z,51.35
2022-11-29T08:53:42.350Z,51.03
2022-11-29T09:00:07.309Z,51.50
2022-11-29T09:03:28.200Z,47.20
2022-11-29T09:06:37.995Z,47.28
2022-11-29T09:12:44.246Z,41.38
2022-11-29T09:15:46.251Z,44.05
2022-11-29T09:18:52.048Z,44.35
2022-11-29T09:21:54.427Z,48.00
2022-11-29T09:24:56.545Z,45.15
2022-11-29T09:28:01.929Z,43.53
2022-11-29T09:31:08.870Z,43.58
2022-11-29T09:34:18.631Z,45.22
2022-11-29T09:37:20.651Z,42.30
2022-11-29T09:40:37.412Z,45.00
2022-11-29T09:44:05.753Z,44.72
2022-11-29T09:47:47.362Z,46.05
2022-11-29T09:54:21.956Z,44.35
2022-11-29T09:57:27.061Z,45.05
2022-11-29T10:00:30.701Z,46.90
2022-11-29T10:03:40.113Z,44.10
2022-11-29T10:06:54.506Z,50.58
2022-11-29T10:10:02.904Z,45.10
2022-11-29T10:13:21.359Z,45.80
2022-11-29T10:16:36.313Z,43.03
2022-11-29T10:19:51.535Z,43.95
2022-11-29T10:23:03.376Z,42.80
2022-11-29T10:26:08.486Z,42.55
2022-11-29T10:29:15.678Z,43.33
2022-11-29T10:32:21.233Z,41.47
2022-11-29T10:35:23.945Z,45.42
2022-11-29T10:38:31.106Z,46.13
2022-11-29T10:41:34.071Z,44.35
2022-11-29T10:44:36.065Z,41.75
2022-11-29T10:47:38.221Z,42.88
2022-11-29T10:50:43.995Z,43.83
2022-11-29T10:53:46.756Z,40.80
2022-11-29T10:56:48.936Z,45.25
2022-11-29T11:00:08.263Z,41.35
2022-11-29T11:03:32.105Z,43.03
2022-11-29T11:06:51.465Z,41.85
2022-11-29T11:09:56.650Z,45.17
2022-11-29T11:13:06.806Z,42.90
2022-11-29T11:16:18.562Z,44.13
2022-11-29T11:19:28.458Z,41.67
2022-11-29T11:22:32.901Z,43.38
2022-11-29T11:25:40.139Z,45.40
2022-11-29T11:28:53.615Z,42.40
2022-11-29T11:31:58.989Z,40.67
2022-11-29T11:35:02.594Z,42.55
2022-11-29T11:38:04.616Z,43.42
2022-11-29T11:41:20.552Z,40.30
2022-11-29T11:44:48.000Z,40.28
2022-11-29T11:47:57.082Z,40.13
2022-11-29T11:51:01.615Z,40.65
2022-11-29T11:54:03.726Z,44.25
2022-11-29T11:57:15.536Z,41.25
2022-11-29T12:01:06.856Z,41.15
2022-11-29T12:04:15.148Z,43.73
2022-11-29T12:08:06.270Z,45.55
2022-11-29T12:11:07.273Z,42.33
2022-11-29T12:14:40.298Z,42.55
2022-11-29T12:18:01.055Z,42.95
2022-11-29T12:21:14.331Z,46.85
2022-11-29T12:24:38.490Z,45.90
2022-11-29T12:27:40.430Z,45.25
2022-11-29T12:31:05.655Z,43.53
2022-11-29T12:34:32.281Z,45.22
2022-11-29T12:37:58.795Z,41.75
2022-11-29T12:41:16.325Z,39.88
2022-11-29T12:44:32.663Z,45.70
2022-11-29T12:47:54.924Z,43.92
2022-11-29T12:51:03.753Z,40.92
2022-11-29T12:54:34.045Z,46.47
2022-11-29T12:58:23.373Z,44.17
2022-11-29T13:01:39.331Z,43.05
2022-11-29T13:05:06.738Z,44.80
2022-11-29T13:08:42.307Z,42.60
2022-11-29T13:11:55.705Z,44.78
2022-11-29T13:15:13.338Z,42.45
2022-11-29T13:18:27.428Z,42.05
2022-11-29T13:21:34.645Z,43.72
2022-11-29T13:24:42.683Z,45.78
2022-11-29T13:27:58.449Z,41.28
2022-11-29T13:31:04.931Z,44.40
2022-11-29T13:34:24.761Z,42.17
2022-11-29T13:37:38.785Z,41.28
2022-11-29T13:41:10.731Z,39.50
2022-11-29T13:44:29.773Z,44.72
2022-11-29T13:47:31.913Z,41.38
2022-11-29T13:50:44.131Z,46.90
2022-11-29T13:53:49.176Z,43.78
2022-11-29T13:57:05.437Z,45.45
2022-11-29T14:00:26.664Z,40.55
2022-11-29T14:03:32.529Z,44.55
2022-11-29T14:06:38.755Z,40.58
2022-11-29T14:09:49.944Z,44.30
2022-11-29T14:12:56.208Z,43.72
2022-11-29T14:16:01.842Z,43.80
2022-11-29T14:19:06.985Z,43.15
2022-11-29T14:22:20.315Z,41.70
2022-11-29T14:28:57.208Z,39.20
2022-11-29T14:32:00.185Z,42.80
2022-11-29T14:35:11.094Z,40.97
2022-11-29T14:38:31.251Z,41.15
2022-11-29T14:41:45.887Z,40.78
2022-11-29T14:44:54.306Z,44.53
2022-11-29T14:47:57.414Z,44.42
2022-11-29T14:51:12.855Z,41.78
2022-11-29T14:54:18.351Z,44.67
2022-11-29T14:57:48.410Z,43.03
2022-11-29T15:00:55.613Z,43.70
2022-11-29T15:03:57.998Z,42.42
2022-11-29T15:07:01.478Z,44.75
2022-11-29T15:10:13.565Z,42.90
2022-11-29T15:13:27.696Z,41.22
2022-11-29T15:16:35.913Z,42.35
2022-11-29T15:20:07.313Z,41.55
2022-11-29T15:23:15.282Z,39.35
2022-11-29T15:26:21.671Z,43.40
2022-11-29T15:29:24.020Z,45.30
2022-11-29T15:32:32.670Z,40.28
2022-11-29T15:35:36.139Z,38.85
2022-11-29T15:38:44.722Z,37.53
2022-11-29T15:41:46.707Z,40.95
2022-11-29T15:44:49.250Z,44.83
2022-11-29T15:47:51.678Z,40.00
2022-11-29T15:51:34.236Z,41.53
2022-11-29T15:54:43.901Z,41.40
2022-11-29T16:00:51.875Z,44.83
2022-11-29T16:03:57.193Z,43.33
2022-11-29T16:06:59.242Z,42.85
2022-11-29T16:10:18.331Z,46.72
2022-11-29T16:13:41.243Z,45.15
2022-11-29T16:16:46.429Z,45.97
2022-11-29T16:19:48.674Z,44.85
2022-11-29T16:23:08.865Z,42.75
2022-11-29T16:29:34.207Z,45.47
2022-11-29T16:32:42.092Z,48.53
2022-11-29T16:35:44.653Z,45.38
2022-11-29T16:38:50.791Z,46.13
2022-11-29T16:42:15.021Z,47.50
2022-11-29T16:45:35.419Z,47.03
2022-11-29T16:48:38.416Z,44.40
2022-11-29T16:51:48.421Z,47.08
2022-11-29T16:57:53.045Z,45.70
2022-11-29T17:00:55.841Z,46.40
2022-11-29T17:04:00.160Z,49.35
2022-11-29T17:07:02.386Z,45.35
2022-11-29T17:10:06.878Z,47.38
2022-11-29T17:13:12.278Z,52.20
2022-11-29T17:16:17.475Z,51.60
2022-11-29T17:19:24.294Z,48.60
2022-11-29T17:22:26.343Z,48.25
2022-11-29T17:25:28.437Z,49.78
2022-11-29T17:28:30.591Z,52.60
2022-11-29T17:31:32.884Z,50.75
2022-11-29T17:34:35.639Z,54.03
2022-11-29T17:37:38.105Z,51.83
2022-11-29T17:40:40.838Z,51.67
2022-11-29T17:43:42.995Z,53.78
2022-11-29T17:46:45.443Z,56.80
2022-11-29T17:49:48.153Z,56.92
2022-11-29T17:52:50.886Z,54.65
2022-11-29T17:55:53.305Z,54.22
2022-11-29T17:59:01.083Z,54.25
2022-11-29T18:02:04.129Z,53.72
2022-11-29T18:05:07.066Z,57.45
2022-11-29T18:08:09.130Z,53.20
2022-11-29T18:11:11.113Z,52.55
2022-11-29T18:14:18.249Z,53.33
2022-11-29T18:17:21.795Z,52.70
2022-11-29T18:20:24.391Z,56.97
2022-11-29T18:23:29.752Z,59.08
2022-11-29T18:26:33.409Z,53.85
2022-11-29T18:29:39.092Z,54.55
2022-11-29T18:32:41.917Z,52.47
2022-11-29T18:35:43.970Z,55.17
2022-11-29T18:38:47.409Z,54.42
2022-11-29T18:41:51.141Z,54.35
2022-11-29T18:44:58.633Z,52.95
2022-11-29T18:48:01.449Z,51.53
2022-11-29T18:51:05.306Z,57.67
2022-11-29T18:54:07.655Z,55.25
2022-11-29T18:57:10.168Z,52.30
2022-11-29T19:00:13.800Z,55.88
2022-11-29T19:03:15.922Z,54.35
2022-11-29T19:06:21.173Z,52.55
2022-11-29T19:09:23.446Z,56.20
2022-11-29T19:12:26.135Z,52.63
2022-11-29T19:15:28.289Z,58.00
2022-11-29T19:18:31.125Z,58.70
2022-11-29T19:21:35.145Z,56.67
2022-11-29T19:24:37.559Z,57.38
2022-11-29T19:27:40.578Z,56.67
2022-11-29T19:30:43.354Z,57.08
2022-11-29T19:33:47.626Z,58.88
2022-11-29T19:36:50.607Z,67.60
2022-11-29T19:39:53.161Z,58.00
2022-11-29T19:42:56.407Z,54.92
2022-11-29T19:45:58.671Z,64.47
2022-11-29T19:49:02.321Z,59.17
2022-11-29T19:52:05.038Z,55.85
2022-11-29T19:55:07.758Z,59.55
2022-11-29T19:58:10.664Z,59.35
2022-11-29T20:01:17.855Z,59.75
2022-11-29T20:04:20.758Z,57.65
2022-11-29T20:07:23.083Z,60.50
2022-11-29T20:10:25.544Z,59.95
2022-11-29T20:13:28.016Z,60.42
2022-11-29T20:16:32.037Z,53.45
2022-11-29T20:19:34.897Z,63.50
2022-11-29T20:22:37.703Z,59.92
2022-11-29T20:25:40.196Z,60.70
2022-11-29T20:28:43.118Z,58.15
2022-11-29T20:31:50.031Z,60.70
2022-11-29T20:34:54.000Z,65.30
2022-11-29T20:38:30.114Z,68.30
2022-11-29T20:41:40.695Z,66.70
2022-11-29T20:45:06.738Z,66.93
2022-11-29T20:48:20.889Z,75.28
2022-11-29T20:51:28.684Z,71.95
2022-11-29T20:54:32.266Z,73.47
2022-11-29T20:57:35.275Z,77.75
2022-11-29T21:00:37.413Z,74.05
2022-11-29T21:03:39.852Z,72.25
2022-11-29T21:06:42.803Z,81.60
2022-11-29T21:09:45.325Z,73.32
2022-11-29T21:12:47.655Z,77.25
2022-11-29T21:15:50.340Z,75.93
2022-11-29T21:18:54.927Z,72.45
2022-11-29T21:22:19.956Z,84.22
2022-11-29T21:25:44.844Z,76.85
2022-11-29T21:29:09.656Z,71.95
2022-11-29T21:32:22.104Z,76.35
2022-11-29T21:35:24.509Z,73.07
2022-11-29T21:38:29.150Z,83.85
2022-11-29T21:41:31.173Z,71.15
2022-11-29T21:44:33.277Z,79.40
2022-11-29T21:47:35.277Z,77.15
2022-11-29T21:50:37.346Z,77.30
2022-11-29T21:53:40.195Z,69.10
2022-11-29T21:56:42.237Z,68.38
2022-11-29T21:59:44.233Z,69.40
2022-11-29T22:02:46.261Z,69.47
2022-11-29T22:05:48.371Z,71.78
2022-11-29T22:08:50.518Z,68.85
2022-11-29T22:11:53.468Z,67.53
2022-11-29T22:14:55.499Z,69.40
2022-11-29T22:17:57.506Z,61.38
2022-11-29T22:21:07.110Z,69.22
2022-11-29T22:24:10.440Z,64.25
2022-11-29T22:27:12.505Z,64.45
2022-11-29T22:30:14.671Z,72.03
2022-11-29T22:33:16.676Z,61.95
2022-11-29T22:36:18.743Z,60.90
2022-11-29T22:39:20.820Z,69.18
2022-11-29T22:42:22.721Z,62.03
2022-11-29T22:45:24.770Z,63.85
2022-11-29T22:48:26.746Z,68.00
2022-11-29T22:51:37.207Z,65.93
2022-11-29T22:54:39.193Z,72.38
2022-11-29T22:57:41.302Z,78.57
2022-11-29T23:00:44.137Z,76.75
2022-11-29T23:03:49.025Z,74.75
2022-11-29T23:06:51.029Z,74.75
2022-11-29T23:09:55.143Z,74.70
2022-11-29T23:12:57.277Z,74.97
2022-11-29T23:15:59.726Z,76.30
2022-11-29T23:19:02.172Z,71.93
2022-11-29T23:22:04.181Z,70.70
2022-11-29T23:25:07.172Z,75.47
2022-11-29T23:28:09.189Z,69.90
2022-11-29T23:31:11.305Z,70.65
2022-11-29T23:34:13.687Z,77.47
2022-11-29T23:37:15.680Z,75.75
2022-11-29T23:40:17.830Z,74.18
2022-11-29T23:43:20.618Z,72.32
2022-11-29T23:46:24.230Z,71.82
2022-11-29T23:49:26.352Z,72.38
2022-11-29T23:52:28.344Z,70.28
2022-11-29T23:55:30.399Z,75.28
2022-11-29T23:58:33.478Z,76.53
